sensor_id;sensor_type;location;lat;lon;timestamp;P1;durP1;ratioP1;P2;durP2;ratioP2
71836;SDS011;59686;51.716;7.016;2023-07-31T00:00:43;2.55;;;1.70;;
71836;SDS011;59686;51.716;7.016;2023-07-31T00:03:09;2.10;;;1.60;;
71836;SDS011;59686;51.716;7.016;2023-07-31T00:05:35;1.85;;;1.40;;
71836;SDS011;59686;51.716;7.016;2023-07-31T00:08:01;2.65;;;1.80;;
71836;SDS011;59686;51.716;7.016;2023-07-31T00:10:26;1.50;;;1.40;;
71836;SDS011;59686;51.716;7.016;2023-07-31T00:12:52;1.40;;;1.30;;
71836;SDS011;59686;51.716;7.016;2023-07-31T00:15:18;2.35;;;1.55;;
71836;SDS011;59686;51.716;7.016;2023-07-31T00:17:43;1.85;;;1.35;;
71836;SDS011;59686;51.716;7.016;2023-07-31T00:20:09;1.58;;;1.40;;
71836;SDS011;59686;51.716;7.016;2023-07-31T00:22:35;2.40;;;1.35;;
71836;SDS011;59686;51.716;7.016;2023-07-31T00:25:01;1.80;;;1.30;;
71836;SDS011;59686;51.716;7.016;2023-07-31T00:27:27;1.55;;;1.45;;
71836;SDS011;59686;51.716;7.016;2023-07-31T00:29:52;1.55;;;1.30;;
71836;SDS011;59686;51.716;7.016;2023-07-31T00:32:18;2.60;;;1.40;;
71836;SDS011;59686;51.716;7.016;2023-07-31T00:34:44;1.60;;;1.30;;
71836;SDS011;59686;51.716;7.016;2023-07-31T00:37:10;1.35;;;1.23;;
71836;SDS011;59686;51.716;7.016;2023-07-31T00:39:35;1.58;;;1.23;;
71836;SDS011;59686;51.716;7.016;2023-07-31T00:42:01;1.63;;;1.30;;
71836;SDS011;59686;51.716;7.016;2023-07-31T00:44:27;2.65;;;1.45;;
71836;SDS011;59686;51.716;7.016;2023-07-31T00:46:53;1.70;;;1.58;;
71836;SDS011;59686;51.716;7.016;2023-07-31T00:49:19;1.80;;;1.40;;
71836;SDS011;59686;51.716;7.016;2023-07-31T00:51:46;3.65;;;1.27;;
71836;SDS011;59686;51.716;7.016;2023-07-31T00:54:12;1.90;;;1.38;;
71836;SDS011;59686;51.716;7.016;2023-07-31T00:56:37;2.03;;;1.35;;
71836;SDS011;59686;51.716;7.016;2023-07-31T00:59:05;6.97;;;1.98;;
71836;SDS011;59686;51.716;7.016;2023-07-31T01:01:32;3.33;;;1.60;;
71836;SDS011;59686;51.716;7.016;2023-07-31T01:03:58;1.58;;;1.42;;
71836;SDS011;59686;51.716;7.016;2023-07-31T01:09:11;3.60;;;2.05;;
71836;SDS011;59686;51.716;7.016;2023-07-31T01:11:48;3.92;;;2.30;;
71836;SDS011;59686;51.716;7.016;2023-07-31T01:14:18;4.93;;;2.20;;
71836;SDS011;59686;51.716;7.016;2023-07-31T01:16:44;5.15;;;2.65;;
71836;SDS011;59686;51.716;7.016;2023-07-31T01:19:10;4.75;;;2.40;;
71836;SDS011;59686;51.716;7.016;2023-07-31T01:25:11;6.82;;;3.15;;
71836;SDS011;59686;51.716;7.016;2023-07-31T01:27:23;5.43;;;2.80;;
71836;SDS011;59686;51.716;7.016;2023-07-31T01:29:57;5.65;;;3.47;;
71836;SDS011;59686;51.716;7.016;2023-07-31T01:32:40;5.78;;;3.35;;
71836;SDS011;59686;51.716;7.016;2023-07-31T01:35:07;7.05;;;4.03;;
71836;SDS011;59686;51.716;7.016;2023-07-31T01:37:34;8.75;;;4.00;;
71836;SDS011;59686;51.716;7.016;2023-07-31T01:39:59;7.85;;;4.30;;
71836;SDS011;59686;51.716;7.016;2023-07-31T01:42:25;10.55;;;4.32;;
71836;SDS011;59686;51.716;7.016;2023-07-31T01:44:51;8.43;;;4.00;;
71836;SDS011;59686;51.716;7.016;2023-07-31T01:47:17;14.65;;;4.47;;
71836;SDS011;59686;51.716;7.016;2023-07-31T01:49:42;10.35;;;4.68;;
71836;SDS011;59686;51.716;7.016;2023-07-31T01:52:08;9.85;;;4.07;;
71836;SDS011;59686;51.716;7.016;2023-07-31T01:54:33;6.45;;;4.07;;
71836;SDS011;59686;51.716;7.016;2023-07-31T01:56:59;11.05;;;4.40;;
71836;SDS011;59686;51.716;7.016;2023-07-31T01:59:25;8.30;;;4.25;;
71836;SDS011;59686;51.716;7.016;2023-07-31T02:01:51;6.95;;;4.18;;
71836;SDS011;59686;51.716;7.016;2023-07-31T02:04:16;10.05;;;4.38;;
71836;SDS011;59686;51.716;7.016;2023-07-31T02:06:42;9.43;;;4.65;;
71836;SDS011;59686;51.716;7.016;2023-07-31T02:09:09;6.60;;;4.10;;
71836;SDS011;59686;51.716;7.016;2023-07-31T02:11:34;7.95;;;4.43;;
71836;SDS011;59686;51.716;7.016;2023-07-31T02:14:00;10.43;;;4.60;;
71836;SDS011;59686;51.716;7.016;2023-07-31T02:16:26;8.13;;;3.95;;
71836;SDS011;59686;51.716;7.016;2023-07-31T02:18:51;10.18;;;4.07;;
71836;SDS011;59686;51.716;7.016;2023-07-31T02:21:17;7.78;;;4.25;;
71836;SDS011;59686;51.716;7.016;2023-07-31T02:23:43;10.05;;;4.10;;
71836;SDS011;59686;51.716;7.016;2023-07-31T02:26:08;8.10;;;3.58;;
71836;SDS011;59686;51.716;7.016;2023-07-31T02:28:34;9.20;;;4.60;;
71836;SDS011;59686;51.716;7.016;2023-07-31T02:31:00;5.53;;;3.72;;
71836;SDS011;59686;51.716;7.016;2023-07-31T02:33:25;10.20;;;4.38;;
71836;SDS011;59686;51.716;7.016;2023-07-31T02:35:51;7.13;;;3.95;;
71836;SDS011;59686;51.716;7.016;2023-07-31T02:38:17;9.43;;;4.63;;
71836;SDS011;59686;51.716;7.016;2023-07-31T02:40:44;7.85;;;4.13;;
71836;SDS011;59686;51.716;7.016;2023-07-31T02:43:09;8.75;;;4.05;;
71836;SDS011;59686;51.716;7.016;2023-07-31T02:45:35;8.45;;;3.97;;
71836;SDS011;59686;51.716;7.016;2023-07-31T02:48:01;7.05;;;3.83;;
71836;SDS011;59686;51.716;7.016;2023-07-31T02:50:27;7.88;;;3.88;;
71836;SDS011;59686;51.716;7.016;2023-07-31T02:52:53;7.90;;;3.88;;
71836;SDS011;59686;51.716;7.016;2023-07-31T02:55:21;8.48;;;4.00;;
71836;SDS011;59686;51.716;7.016;2023-07-31T02:57:47;7.72;;;3.90;;
71836;SDS011;59686;51.716;7.016;2023-07-31T03:00:12;7.75;;;4.05;;
71836;SDS011;59686;51.716;7.016;2023-07-31T03:02:38;6.60;;;3.80;;
71836;SDS011;59686;51.716;7.016;2023-07-31T03:05:04;7.88;;;4.10;;
71836;SDS011;59686;51.716;7.016;2023-07-31T03:07:30;7.43;;;3.80;;
71836;SDS011;59686;51.716;7.016;2023-07-31T03:09:56;7.88;;;4.07;;
71836;SDS011;59686;51.716;7.016;2023-07-31T03:12:21;9.95;;;4.53;;
71836;SDS011;59686;51.716;7.016;2023-07-31T03:14:48;10.55;;;4.65;;
71836;SDS011;59686;51.716;7.016;2023-07-31T03:17:14;9.07;;;4.18;;
71836;SDS011;59686;51.716;7.016;2023-07-31T03:19:40;11.13;;;4.00;;
71836;SDS011;59686;51.716;7.016;2023-07-31T03:22:06;8.38;;;3.60;;
71836;SDS011;59686;51.716;7.016;2023-07-31T03:24:33;7.60;;;4.22;;
71836;SDS011;59686;51.716;7.016;2023-07-31T03:26:58;6.40;;;4.03;;
71836;SDS011;59686;51.716;7.016;2023-07-31T03:29:24;9.65;;;4.75;;
71836;SDS011;59686;51.716;7.016;2023-07-31T03:31:50;8.88;;;4.60;;
71836;SDS011;59686;51.716;7.016;2023-07-31T03:34:16;9.65;;;4.25;;
71836;SDS011;59686;51.716;7.016;2023-07-31T03:36:44;9.68;;;4.38;;
71836;SDS011;59686;51.716;7.016;2023-07-31T03:39:10;9.10;;;3.95;;
71836;SDS011;59686;51.716;7.016;2023-07-31T03:41:36;6.55;;;4.03;;
71836;SDS011;59686;51.716;7.016;2023-07-31T03:44:02;9.00;;;3.70;;
71836;SDS011;59686;51.716;7.016;2023-07-31T03:46:27;10.02;;;4.57;;
71836;SDS011;59686;51.716;7.016;2023-07-31T03:48:53;9.60;;;4.57;;
71836;SDS011;59686;51.716;7.016;2023-07-31T03:51:19;10.82;;;3.90;;
71836;SDS011;59686;51.716;7.016;2023-07-31T03:53:45;6.72;;;4.63;;
71836;SDS011;59686;51.716;7.016;2023-07-31T03:56:10;10.80;;;4.65;;
71836;SDS011;59686;51.716;7.016;2023-07-31T03:58:36;9.35;;;4.10;;
71836;SDS011;59686;51.716;7.016;2023-07-31T04:01:02;9.75;;;4.78;;
71836;SDS011;59686;51.716;7.016;2023-07-31T04:03:29;10.65;;;4.20;;
71836;SDS011;59686;51.716;7.016;2023-07-31T04:05:55;6.60;;;3.83;;
71836;SDS011;59686;51.716;7.016;2023-07-31T04:08:21;10.95;;;4.50;;
71836;SDS011;59686;51.716;7.016;2023-07-31T04:10:47;8.07;;;4.57;;
71836;SDS011;59686;51.716;7.016;2023-07-31T04:13:13;8.38;;;4.50;;
71836;SDS011;59686;51.716;7.016;2023-07-31T04:15:47;6.40;;;4.20;;
71836;SDS011;59686;51.716;7.016;2023-07-31T04:18:15;8.40;;;4.25;;
71836;SDS011;59686;51.716;7.016;2023-07-31T04:20:41;9.25;;;4.05;;
71836;SDS011;59686;51.716;7.016;2023-07-31T04:23:06;8.23;;;4.78;;
71836;SDS011;59686;51.716;7.016;2023-07-31T04:25:32;8.90;;;4.00;;
71836;SDS011;59686;51.716;7.016;2023-07-31T04:28:00;7.57;;;4.20;;
71836;SDS011;59686;51.716;7.016;2023-07-31T04:30:25;7.20;;;4.47;;
71836;SDS011;59686;51.716;7.016;2023-07-31T04:32:51;10.30;;;4.65;;
71836;SDS011;59686;51.716;7.016;2023-07-31T04:35:17;9.80;;;4.00;;
71836;SDS011;59686;51.716;7.016;2023-07-31T04:37:42;10.05;;;4.38;;
71836;SDS011;59686;51.716;7.016;2023-07-31T04:40:10;7.88;;;3.95;;
71836;SDS011;59686;51.716;7.016;2023-07-31T04:42:36;7.00;;;4.43;;
71836;SDS011;59686;51.716;7.016;2023-07-31T04:45:02;10.35;;;4.03;;
71836;SDS011;59686;51.716;7.016;2023-07-31T04:47:28;7.68;;;3.95;;
71836;SDS011;59686;51.716;7.016;2023-07-31T04:49:53;8.60;;;4.40;;
71836;SDS011;59686;51.716;7.016;2023-07-31T04:52:19;10.43;;;4.25;;
71836;SDS011;59686;51.716;7.016;2023-07-31T04:54:45;10.93;;;4.45;;
71836;SDS011;59686;51.716;7.016;2023-07-31T04:57:10;9.20;;;4.43;;
71836;SDS011;59686;51.716;7.016;2023-07-31T04:59:36;7.63;;;4.25;;
71836;SDS011;59686;51.716;7.016;2023-07-31T05:02:03;10.02;;;4.50;;
71836;SDS011;59686;51.716;7.016;2023-07-31T05:04:29;8.15;;;4.25;;
71836;SDS011;59686;51.716;7.016;2023-07-31T05:06:55;5.57;;;3.95;;
71836;SDS011;59686;51.716;7.016;2023-07-31T05:09:21;10.70;;;4.63;;
71836;SDS011;59686;51.716;7.016;2023-07-31T05:11:46;11.80;;;4.57;;
71836;SDS011;59686;51.716;7.016;2023-07-31T05:14:12;9.60;;;4.45;;
71836;SDS011;59686;51.716;7.016;2023-07-31T05:16:38;11.55;;;4.53;;
71836;SDS011;59686;51.716;7.016;2023-07-31T05:19:04;10.10;;;4.20;;
71836;SDS011;59686;51.716;7.016;2023-07-31T05:21:30;8.38;;;4.10;;
71836;SDS011;59686;51.716;7.016;2023-07-31T05:23:55;9.02;;;4.75;;
71836;SDS011;59686;51.716;7.016;2023-07-31T05:26:22;8.98;;;4.03;;
71836;SDS011;59686;51.716;7.016;2023-07-31T05:28:48;10.55;;;4.20;;
71836;SDS011;59686;51.716;7.016;2023-07-31T05:31:14;9.05;;;4.40;;
71836;SDS011;59686;51.716;7.016;2023-07-31T05:33:39;11.48;;;4.38;;
71836;SDS011;59686;51.716;7.016;2023-07-31T05:36:05;8.73;;;4.03;;
71836;SDS011;59686;51.716;7.016;2023-07-31T05:38:32;10.88;;;4.75;;
71836;SDS011;59686;51.716;7.016;2023-07-31T05:40:57;7.45;;;4.20;;
71836;SDS011;59686;51.716;7.016;2023-07-31T05:43:23;7.13;;;3.75;;
71836;SDS011;59686;51.716;7.016;2023-07-31T05:45:49;12.50;;;4.50;;
71836;SDS011;59686;51.716;7.016;2023-07-31T05:48:16;8.65;;;4.18;;
71836;SDS011;59686;51.716;7.016;2023-07-31T05:50:42;8.98;;;4.18;;
71836;SDS011;59686;51.716;7.016;2023-07-31T05:53:08;8.15;;;4.15;;
71836;SDS011;59686;51.716;7.016;2023-07-31T05:55:35;8.20;;;4.10;;
71836;SDS011;59686;51.716;7.016;2023-07-31T05:58:01;7.43;;;4.05;;
71836;SDS011;59686;51.716;7.016;2023-07-31T06:00:27;11.68;;;4.53;;
71836;SDS011;59686;51.716;7.016;2023-07-31T06:02:52;6.82;;;3.85;;
71836;SDS011;59686;51.716;7.016;2023-07-31T06:05:22;6.97;;;4.30;;
71836;SDS011;59686;51.716;7.016;2023-07-31T06:07:47;9.23;;;4.43;;
71836;SDS011;59686;51.716;7.016;2023-07-31T06:10:13;8.13;;;4.13;;
71836;SDS011;59686;51.716;7.016;2023-07-31T06:12:39;7.75;;;3.85;;
71836;SDS011;59686;51.716;7.016;2023-07-31T06:15:05;8.45;;;4.10;;
71836;SDS011;59686;51.716;7.016;2023-07-31T06:17:31;7.82;;;4.22;;
71836;SDS011;59686;51.716;7.016;2023-07-31T06:19:57;11.23;;;4.35;;
71836;SDS011;59686;51.716;7.016;2023-07-31T06:22:22;7.85;;;4.13;;
71836;SDS011;59686;51.716;7.016;2023-07-31T06:24:48;8.20;;;4.00;;
71836;SDS011;59686;51.716;7.016;2023-07-31T06:27:14;6.97;;;4.00;;
71836;SDS011;59686;51.716;7.016;2023-07-31T06:29:39;8.40;;;4.30;;
71836;SDS011;59686;51.716;7.016;2023-07-31T06:32:06;7.85;;;3.88;;
71836;SDS011;59686;51.716;7.016;2023-07-31T06:34:32;7.72;;;4.22;;
71836;SDS011;59686;51.716;7.016;2023-07-31T06:36:58;6.82;;;3.90;;
71836;SDS011;59686;51.716;7.016;2023-07-31T06:39:23;5.93;;;3.80;;
71836;SDS011;59686;51.716;7.016;2023-07-31T06:41:49;10.07;;;4.60;;
71836;SDS011;59686;51.716;7.016;2023-07-31T06:44:15;8.23;;;4.03;;
71836;SDS011;59686;51.716;7.016;2023-07-31T06:46:42;9.93;;;4.75;;
71836;SDS011;59686;51.716;7.016;2023-07-31T06:49:07;7.10;;;3.97;;
71836;SDS011;59686;51.716;7.016;2023-07-31T06:51:33;7.38;;;4.38;;
71836;SDS011;59686;51.716;7.016;2023-07-31T06:54:00;6.63;;;3.80;;
71836;SDS011;59686;51.716;7.016;2023-07-31T06:56:28;6.88;;;3.60;;
71836;SDS011;59686;51.716;7.016;2023-07-31T06:58:55;7.05;;;4.28;;
71836;SDS011;59686;51.716;7.016;2023-07-31T07:01:21;6.63;;;4.20;;
71836;SDS011;59686;51.716;7.016;2023-07-31T07:03:47;7.90;;;4.05;;
71836;SDS011;59686;51.716;7.016;2023-07-31T07:06:15;5.93;;;3.83;;
71836;SDS011;59686;51.716;7.016;2023-07-31T07:08:41;6.35;;;4.20;;
71836;SDS011;59686;51.716;7.016;2023-07-31T07:11:11;7.82;;;4.32;;
71836;SDS011;59686;51.716;7.016;2023-07-31T07:13:37;7.68;;;4.38;;
71836;SDS011;59686;51.716;7.016;2023-07-31T07:16:03;7.55;;;4.38;;
71836;SDS011;59686;51.716;7.016;2023-07-31T07:18:28;5.78;;;3.90;;
71836;SDS011;59686;51.716;7.016;2023-07-31T07:20:54;6.25;;;4.00;;
71836;SDS011;59686;51.716;7.016;2023-07-31T07:23:22;6.18;;;4.72;;
71836;SDS011;59686;51.716;7.016;2023-07-31T07:25:47;5.90;;;4.03;;
71836;SDS011;59686;51.716;7.016;2023-07-31T07:28:13;6.25;;;4.38;;
71836;SDS011;59686;51.716;7.016;2023-07-31T07:30:42;7.90;;;4.03;;
71836;SDS011;59686;51.716;7.016;2023-07-31T07:33:08;7.13;;;4.10;;
71836;SDS011;59686;51.716;7.016;2023-07-31T07:35:34;7.63;;;4.18;;
71836;SDS011;59686;51.716;7.016;2023-07-31T07:38:01;6.13;;;3.80;;
71836;SDS011;59686;51.716;7.016;2023-07-31T07:40:27;6.82;;;3.80;;
71836;SDS011;59686;51.716;7.016;2023-07-31T07:42:53;6.07;;;4.07;;
71836;SDS011;59686;51.716;7.016;2023-07-31T07:45:19;4.90;;;3.40;;
71836;SDS011;59686;51.716;7.016;2023-07-31T07:47:48;4.95;;;3.80;;
71836;SDS011;59686;51.716;7.016;2023-07-31T07:50:14;6.63;;;3.70;;
71836;SDS011;59686;51.716;7.016;2023-07-31T07:52:39;6.13;;;3.60;;
71836;SDS011;59686;51.716;7.016;2023-07-31T07:55:05;5.13;;;3.28;;
71836;SDS011;59686;51.716;7.016;2023-07-31T07:57:31;6.40;;;3.80;;
71836;SDS011;59686;51.716;7.016;2023-07-31T07:59:57;4.57;;;3.42;;
71836;SDS011;59686;51.716;7.016;2023-07-31T08:02:23;5.07;;;3.47;;
71836;SDS011;59686;51.716;7.016;2023-07-31T08:04:49;5.00;;;3.42;;
71836;SDS011;59686;51.716;7.016;2023-07-31T08:07:15;5.00;;;3.47;;
71836;SDS011;59686;51.716;7.016;2023-07-31T08:09:41;5.57;;;2.90;;
71836;SDS011;59686;51.716;7.016;2023-07-31T08:12:06;3.97;;;3.13;;
71836;SDS011;59686;51.716;7.016;2023-07-31T08:14:32;4.75;;;3.10;;
71836;SDS011;59686;51.716;7.016;2023-07-31T08:16:58;4.03;;;3.00;;
71836;SDS011;59686;51.716;7.016;2023-07-31T08:19:24;4.63;;;2.95;;
71836;SDS011;59686;51.716;7.016;2023-07-31T08:21:50;5.43;;;3.05;;
71836;SDS011;59686;51.716;7.016;2023-07-31T08:24:16;4.63;;;2.88;;
71836;SDS011;59686;51.716;7.016;2023-07-31T08:26:41;3.67;;;2.90;;
71836;SDS011;59686;51.716;7.016;2023-07-31T08:29:08;3.63;;;3.15;;
71836;SDS011;59686;51.716;7.016;2023-07-31T08:31:34;4.00;;;3.05;;
71836;SDS011;59686;51.716;7.016;2023-07-31T08:34:03;4.40;;;3.00;;
71836;SDS011;59686;51.716;7.016;2023-07-31T08:36:28;4.90;;;2.78;;
71836;SDS011;59686;51.716;7.016;2023-07-31T08:38:54;3.80;;;2.78;;
71836;SDS011;59686;51.716;7.016;2023-07-31T08:41:20;3.55;;;2.88;;
71836;SDS011;59686;51.716;7.016;2023-07-31T08:43:46;3.42;;;2.55;;
71836;SDS011;59686;51.716;7.016;2023-07-31T08:46:12;3.33;;;2.60;;
71836;SDS011;59686;51.716;7.016;2023-07-31T08:48:40;3.92;;;2.83;;
71836;SDS011;59686;51.716;7.016;2023-07-31T08:51:10;3.72;;;2.80;;
71836;SDS011;59686;51.716;7.016;2023-07-31T08:53:36;4.07;;;2.58;;
71836;SDS011;59686;51.716;7.016;2023-07-31T08:56:02;5.15;;;2.42;;
71836;SDS011;59686;51.716;7.016;2023-07-31T08:58:30;3.35;;;2.63;;
71836;SDS011;59686;51.716;7.016;2023-07-31T09:00:57;3.50;;;2.70;;
71836;SDS011;59686;51.716;7.016;2023-07-31T09:03:27;4.95;;;2.70;;
71836;SDS011;59686;51.716;7.016;2023-07-31T09:05:53;8.48;;;2.55;;
71836;SDS011;59686;51.716;7.016;2023-07-31T09:08:21;5.07;;;3.03;;
71836;SDS011;59686;51.716;7.016;2023-07-31T09:10:47;5.25;;;2.20;;
71836;SDS011;59686;51.716;7.016;2023-07-31T09:13:16;3.78;;;2.58;;
71836;SDS011;59686;51.716;7.016;2023-07-31T09:15:44;4.35;;;2.80;;
71836;SDS011;59686;51.716;7.016;2023-07-31T09:18:11;5.22;;;2.60;;
71836;SDS011;59686;51.716;7.016;2023-07-31T09:20:38;3.50;;;2.70;;
71836;SDS011;59686;51.716;7.016;2023-07-31T09:23:08;3.45;;;2.90;;
71836;SDS011;59686;51.716;7.016;2023-07-31T09:28:11;3.10;;;2.72;;
71836;SDS011;59686;51.716;7.016;2023-07-31T09:30:46;5.10;;;3.08;;
71836;SDS011;59686;51.716;7.016;2023-07-31T09:33:16;4.45;;;3.13;;
71836;SDS011;59686;51.716;7.016;2023-07-31T09:35:43;6.13;;;3.10;;
71836;SDS011;59686;51.716;7.016;2023-07-31T09:38:10;4.28;;;2.60;;
71836;SDS011;59686;51.716;7.016;2023-07-31T09:40:42;3.60;;;2.67;;
71836;SDS011;59686;51.716;7.016;2023-07-31T09:43:21;4.38;;;2.65;;
71836;SDS011;59686;51.716;7.016;2023-07-31T09:45:54;3.20;;;2.88;;
71836;SDS011;59686;51.716;7.016;2023-07-31T09:48:24;3.00;;;2.47;;
71836;SDS011;59686;51.716;7.016;2023-07-31T09:50:56;3.78;;;2.58;;
71836;SDS011;59686;51.716;7.016;2023-07-31T09:53:29;3.63;;;2.80;;
71836;SDS011;59686;51.716;7.016;2023-07-31T09:56:00;5.00;;;2.90;;
71836;SDS011;59686;51.716;7.016;2023-07-31T09:58:27;4.65;;;2.88;;
71836;SDS011;59686;51.716;7.016;2023-07-31T10:00:57;3.90;;;3.05;;
71836;SDS011;59686;51.716;7.016;2023-07-31T10:03:33;3.75;;;2.70;;
71836;SDS011;59686;51.716;7.016;2023-07-31T10:06:01;4.38;;;2.67;;
71836;SDS011;59686;51.716;7.016;2023-07-31T10:08:35;3.20;;;2.45;;
71836;SDS011;59686;51.716;7.016;2023-07-31T10:11:02;4.68;;;2.75;;
71836;SDS011;59686;51.716;7.016;2023-07-31T10:13:30;4.95;;;3.08;;
71836;SDS011;59686;51.716;7.016;2023-07-31T10:15:58;4.70;;;2.65;;
71836;SDS011;59686;51.716;7.016;2023-07-31T10:18:26;2.60;;;2.40;;
71836;SDS011;59686;51.716;7.016;2023-07-31T10:20:53;4.68;;;2.75;;
71836;SDS011;59686;51.716;7.016;2023-07-31T10:23:53;5.15;;;2.85;;
71836;SDS011;59686;51.716;7.016;2023-07-31T10:26:28;5.45;;;2.80;;
71836;SDS011;59686;51.716;7.016;2023-07-31T10:28:56;5.90;;;2.80;;
71836;SDS011;59686;51.716;7.016;2023-07-31T10:31:23;5.18;;;2.40;;
71836;SDS011;59686;51.716;7.016;2023-07-31T10:33:50;4.35;;;2.95;;
71836;SDS011;59686;51.716;7.016;2023-07-31T10:36:20;3.75;;;2.22;;
71836;SDS011;59686;51.716;7.016;2023-07-31T10:39:02;3.58;;;2.42;;
71836;SDS011;59686;51.716;7.016;2023-07-31T10:41:29;4.93;;;2.20;;
71836;SDS011;59686;51.716;7.016;2023-07-31T10:43:59;4.10;;;2.55;;
71836;SDS011;59686;51.716;7.016;2023-07-31T10:46:27;3.88;;;2.33;;
71836;SDS011;59686;51.716;7.016;2023-07-31T10:49:00;4.20;;;2.70;;
71836;SDS011;59686;51.716;7.016;2023-07-31T10:51:33;3.13;;;2.30;;
71836;SDS011;59686;51.716;7.016;2023-07-31T10:54:12;4.57;;;2.53;;
71836;SDS011;59686;51.716;7.016;2023-07-31T10:56:40;4.07;;;2.45;;
71836;SDS011;59686;51.716;7.016;2023-07-31T10:59:09;3.58;;;2.60;;
71836;SDS011;59686;51.716;7.016;2023-07-31T11:02:15;2.90;;;2.55;;
71836;SDS011;59686;51.716;7.016;2023-07-31T11:10:51;6.50;;;2.90;;
71836;SDS011;59686;51.716;7.016;2023-07-31T11:13:29;3.15;;;2.38;;
71836;SDS011;59686;51.716;7.016;2023-07-31T11:15:55;3.10;;;2.70;;
71836;SDS011;59686;51.716;7.016;2023-07-31T11:18:21;3.75;;;2.80;;
71836;SDS011;59686;51.716;7.016;2023-07-31T11:20:47;3.90;;;2.60;;
71836;SDS011;59686;51.716;7.016;2023-07-31T11:23:15;3.50;;;2.70;;
71836;SDS011;59686;51.716;7.016;2023-07-31T11:25:41;4.55;;;2.53;;
71836;SDS011;59686;51.716;7.016;2023-07-31T11:28:13;4.28;;;2.88;;
71836;SDS011;59686;51.716;7.016;2023-07-31T11:30:41;3.53;;;2.70;;
71836;SDS011;59686;51.716;7.016;2023-07-31T11:33:10;4.38;;;2.80;;
71836;SDS011;59686;51.716;7.016;2023-07-31T11:35:41;3.72;;;2.85;;
71836;SDS011;59686;51.716;7.016;2023-07-31T11:38:23;6.97;;;2.90;;
71836;SDS011;59686;51.716;7.016;2023-07-31T11:40:57;4.35;;;2.90;;
71836;SDS011;59686;51.716;7.016;2023-07-31T11:45:56;4.07;;;2.72;;
71836;SDS011;59686;51.716;7.016;2023-07-31T11:48:27;5.82;;;2.88;;
71836;SDS011;59686;51.716;7.016;2023-07-31T11:50:56;3.65;;;2.80;;
71836;SDS011;59686;51.716;7.016;2023-07-31T11:53:47;4.47;;;2.80;;
71836;SDS011;59686;51.716;7.016;2023-07-31T11:56:13;3.92;;;3.10;;
71836;SDS011;59686;51.716;7.016;2023-07-31T11:58:41;5.32;;;2.63;;
71836;SDS011;59686;51.716;7.016;2023-07-31T12:03:40;3.22;;;2.53;;
71836;SDS011;59686;51.716;7.016;2023-07-31T12:06:08;5.78;;;2.80;;
71836;SDS011;59686;51.716;7.016;2023-07-31T12:08:33;5.00;;;2.90;;
71836;SDS011;59686;51.716;7.016;2023-07-31T12:11:03;3.33;;;2.60;;
71836;SDS011;59686;51.716;7.016;2023-07-31T12:13:32;5.32;;;2.83;;
71836;SDS011;59686;51.716;7.016;2023-07-31T12:16:02;4.50;;;2.90;;
71836;SDS011;59686;51.716;7.016;2023-07-31T12:18:29;2.97;;;2.47;;
71836;SDS011;59686;51.716;7.016;2023-07-31T12:21:05;4.63;;;2.80;;
71836;SDS011;59686;51.716;7.016;2023-07-31T12:23:36;4.60;;;2.83;;
71836;SDS011;59686;51.716;7.016;2023-07-31T12:28:54;3.38;;;2.53;;
71836;SDS011;59686;51.716;7.016;2023-07-31T12:31:25;3.50;;;2.28;;
71836;SDS011;59686;51.716;7.016;2023-07-31T12:33:58;3.63;;;2.60;;
71836;SDS011;59686;51.716;7.016;2023-07-31T12:36:28;2.65;;;2.28;;
71836;SDS011;59686;51.716;7.016;2023-07-31T12:38:59;5.05;;;2.67;;
71836;SDS011;59686;51.716;7.016;2023-07-31T12:41:28;4.63;;;2.42;;
71836;SDS011;59686;51.716;7.016;2023-07-31T12:44:06;3.45;;;2.55;;
71836;SDS011;59686;51.716;7.016;2023-07-31T12:46:35;3.17;;;2.60;;
71836;SDS011;59686;51.716;7.016;2023-07-31T12:49:02;3.38;;;2.30;;
71836;SDS011;59686;51.716;7.016;2023-07-31T12:54:24;3.13;;;2.60;;
71836;SDS011;59686;51.716;7.016;2023-07-31T12:56:50;2.95;;;2.38;;
71836;SDS011;59686;51.716;7.016;2023-07-31T12:59:17;3.78;;;2.65;;
71836;SDS011;59686;51.716;7.016;2023-07-31T13:01:43;2.70;;;2.40;;
71836;SDS011;59686;51.716;7.016;2023-07-31T13:04:09;4.75;;;2.65;;
71836;SDS011;59686;51.716;7.016;2023-07-31T13:06:55;3.97;;;2.40;;
71836;SDS011;59686;51.716;7.016;2023-07-31T13:09:29;5.45;;;2.60;;
71836;SDS011;59686;51.716;7.016;2023-07-31T13:12:01;2.70;;;2.17;;
71836;SDS011;59686;51.716;7.016;2023-07-31T13:14:35;2.88;;;2.53;;
71836;SDS011;59686;51.716;7.016;2023-07-31T13:17:05;3.00;;;2.58;;
71836;SDS011;59686;51.716;7.016;2023-07-31T13:19:59;5.82;;;2.47;;
71836;SDS011;59686;51.716;7.016;2023-07-31T13:22:27;4.55;;;2.55;;
71836;SDS011;59686;51.716;7.016;2023-07-31T13:24:59;7.15;;;2.67;;
71836;SDS011;59686;51.716;7.016;2023-07-31T13:27:25;3.35;;;2.30;;
71836;SDS011;59686;51.716;7.016;2023-07-31T13:32:23;5.55;;;2.97;;
71836;SDS011;59686;51.716;7.016;2023-07-31T13:34:50;4.53;;;2.75;;
71836;SDS011;59686;51.716;7.016;2023-07-31T13:37:17;5.15;;;2.45;;
71836;SDS011;59686;51.716;7.016;2023-07-31T13:39:43;3.25;;;2.70;;
71836;SDS011;59686;51.716;7.016;2023-07-31T13:42:09;3.03;;;2.72;;
71836;SDS011;59686;51.716;7.016;2023-07-31T13:44:42;3.55;;;3.00;;
71836;SDS011;59686;51.716;7.016;2023-07-31T13:47:08;3.13;;;2.55;;
71836;SDS011;59686;51.716;7.016;2023-07-31T13:49:34;4.50;;;3.20;;
71836;SDS011;59686;51.716;7.016;2023-07-31T13:52:00;3.78;;;3.10;;
71836;SDS011;59686;51.716;7.016;2023-07-31T13:54:31;3.72;;;2.78;;
71836;SDS011;59686;51.716;7.016;2023-07-31T13:56:57;3.88;;;3.30;;
71836;SDS011;59686;51.716;7.016;2023-07-31T13:59:22;4.57;;;2.90;;
71836;SDS011;59686;51.716;7.016;2023-07-31T14:01:51;4.32;;;3.00;;
71836;SDS011;59686;51.716;7.016;2023-07-31T14:04:17;3.47;;;2.80;;
71836;SDS011;59686;51.716;7.016;2023-07-31T14:06:43;3.75;;;3.00;;
71836;SDS011;59686;51.716;7.016;2023-07-31T14:09:09;4.38;;;3.10;;
71836;SDS011;59686;51.716;7.016;2023-07-31T14:11:35;4.00;;;3.03;;
71836;SDS011;59686;51.716;7.016;2023-07-31T14:14:00;5.32;;;3.00;;
71836;SDS011;59686;51.716;7.016;2023-07-31T14:16:27;4.93;;;3.47;;
71836;SDS011;59686;51.716;7.016;2023-07-31T14:18:55;4.10;;;3.45;;
71836;SDS011;59686;51.716;7.016;2023-07-31T14:21:21;5.20;;;3.50;;
71836;SDS011;59686;51.716;7.016;2023-07-31T14:23:52;4.13;;;2.90;;
71836;SDS011;59686;51.716;7.016;2023-07-31T14:26:18;3.53;;;3.13;;
71836;SDS011;59686;51.716;7.016;2023-07-31T14:28:44;4.97;;;3.42;;
71836;SDS011;59686;51.716;7.016;2023-07-31T14:31:13;4.85;;;3.47;;
71836;SDS011;59686;51.716;7.016;2023-07-31T14:33:38;3.88;;;3.38;;
71836;SDS011;59686;51.716;7.016;2023-07-31T14:36:04;3.67;;;3.30;;
71836;SDS011;59686;51.716;7.016;2023-07-31T14:38:35;4.10;;;3.63;;
71836;SDS011;59686;51.716;7.016;2023-07-31T14:41:01;4.10;;;3.33;;
71836;SDS011;59686;51.716;7.016;2023-07-31T14:43:27;4.07;;;3.55;;
71836;SDS011;59686;51.716;7.016;2023-07-31T14:45:57;4.75;;;3.65;;
71836;SDS011;59686;51.716;7.016;2023-07-31T14:48:24;4.40;;;3.45;;
71836;SDS011;59686;51.716;7.016;2023-07-31T14:50:52;5.45;;;4.07;;
71836;SDS011;59686;51.716;7.016;2023-07-31T14:53:17;7.05;;;3.88;;
71836;SDS011;59686;51.716;7.016;2023-07-31T14:58:22;6.15;;;3.78;;
71836;SDS011;59686;51.716;7.016;2023-07-31T15:00:49;4.95;;;4.05;;
71836;SDS011;59686;51.716;7.016;2023-07-31T15:03:14;5.50;;;3.60;;
71836;SDS011;59686;51.716;7.016;2023-07-31T15:05:40;4.70;;;3.70;;
71836;SDS011;59686;51.716;7.016;2023-07-31T15:08:06;8.07;;;3.90;;
71836;SDS011;59686;51.716;7.016;2023-07-31T15:10:31;5.47;;;3.70;;
71836;SDS011;59686;51.716;7.016;2023-07-31T15:12:57;6.53;;;4.25;;
71836;SDS011;59686;51.716;7.016;2023-07-31T15:15:28;6.35;;;4.15;;
71836;SDS011;59686;51.716;7.016;2023-07-31T15:17:54;6.20;;;3.97;;